createdAt,value
2017-11-03T00:00:18.033Z,14.60
2017-11-03T00:02:44.293Z,14.37
2017-11-03T00:05:11.629Z,13.57
2017-11-03T00:07:37.869Z,14.37
2017-11-03T00:10:04.886Z,13.68
2017-11-03T00:12:31.145Z,14.27
2017-11-03T00:14:57.387Z,13.47
2017-11-03T00:17:23.607Z,13.77
2017-11-03T00:19:49.830Z,13.63
2017-11-03T00:22:16.374Z,13.90
2017-11-03T00:24:43.772Z,13.90
2017-11-03T00:27:10.018Z,13.73
2017-11-03T00:29:36.252Z,12.63
2017-11-03T00:32:03.262Z,13.33
2017-11-03T00:34:30.260Z,15.17
2017-11-03T00:36:57.602Z,13.97
2017-11-03T00:39:24.613Z,14.50
2017-11-03T00:41:50.885Z,15.07
2017-11-03T00:44:17.156Z,15.10
2017-11-03T00:46:43.401Z,16.80
2017-11-03T00:49:09.664Z,17.73
2017-11-03T00:51:36.640Z,19.67
2017-11-03T00:54:02.894Z,19.07
2017-11-03T00:56:29.154Z,16.43
2017-11-03T00:58:56.136Z,17.53
2017-11-03T01:01:22.384Z,18.87
2017-11-03T01:03:48.690Z,20.30
2017-11-03T01:06:14.953Z,20.00
2017-11-03T01:08:41.195Z,19.63
2017-11-03T01:11:08.187Z,18.23
2017-11-03T01:13:34.775Z,19.47
2017-11-03T01:16:01.019Z,18.80
2017-11-03T01:18:28.003Z,19.50
2017-11-03T01:20:54.238Z,19.13
2017-11-03T01:23:20.494Z,20.30
2017-11-03T01:25:46.761Z,18.02
2017-11-03T01:28:12.995Z,19.93
2017-11-03T01:30:39.259Z,18.70
2017-11-03T01:33:05.519Z,20.40
2017-11-03T01:35:32.517Z,18.40
2017-11-03T01:37:58.802Z,21.40
2017-11-03T01:40:25.795Z,21.13
2017-11-03T01:42:52.111Z,21.75
2017-11-03T01:45:18.422Z,20.70
2017-11-03T01:47:44.737Z,21.42
2017-11-03T01:50:10.982Z,20.23
2017-11-03T01:52:37.247Z,20.10
2017-11-03T01:55:03.497Z,20.53
2017-11-03T01:57:29.737Z,20.67
2017-11-03T01:59:56.788Z,20.45
2017-11-03T02:02:23.790Z,19.80
2017-11-03T02:04:50.092Z,21.45
2017-11-03T02:07:16.396Z,20.75
2017-11-03T02:09:42.660Z,20.65
2017-11-03T02:12:08.967Z,22.42
2017-11-03T02:14:35.212Z,20.92
2017-11-03T02:17:01.464Z,20.48
2017-11-03T02:19:27.780Z,20.65
2017-11-03T02:21:54.101Z,21.27
2017-11-03T02:24:20.393Z,20.83
2017-11-03T02:26:46.676Z,21.87
2017-11-03T02:29:12.977Z,22.70
2017-11-03T02:31:39.478Z,22.60
2017-11-03T02:34:06.890Z,23.30
2017-11-03T02:36:33.370Z,23.90
2017-11-03T02:38:59.651Z,23.65
2017-11-03T02:41:26.039Z,25.27
2017-11-03T02:43:52.301Z,23.10
2017-11-03T02:46:18.564Z,25.25
2017-11-03T02:48:45.566Z,25.17
2017-11-03T02:51:11.817Z,22.80
2017-11-03T02:53:38.968Z,23.85
2017-11-03T02:56:05.261Z,22.70
2017-11-03T02:58:31.608Z,24.00
2017-11-03T03:00:59.366Z,24.45
2017-11-03T03:03:25.820Z,25.58
2017-11-03T03:05:52.870Z,23.55
2017-11-03T03:08:19.853Z,23.30
2017-11-03T03:10:46.106Z,21.62
2017-11-03T03:13:12.388Z,22.77
2017-11-03T03:15:38.699Z,26.33
2017-11-03T03:18:05.812Z,25.45
2017-11-03T03:20:32.096Z,24.58
2017-11-03T03:22:58.395Z,25.60
2017-11-03T03:25:25.424Z,25.60
2017-11-03T03:27:51.765Z,25.70
2017-11-03T03:30:18.816Z,27.05
2017-11-03T03:32:45.099Z,24.37
2017-11-03T03:35:11.341Z,23.17
2017-11-03T03:37:37.626Z,24.73
2017-11-03T03:40:03.939Z,25.23
2017-11-03T03:42:31.013Z,25.08
2017-11-03T03:44:57.301Z,24.67
2017-11-03T03:47:24.304Z,26.30
2017-11-03T03:49:50.608Z,25.98
2017-11-03T03:52:16.878Z,23.90
2017-11-03T03:54:43.170Z,24.33
2017-11-03T03:57:09.444Z,24.58
2017-11-03T03:59:35.707Z,24.98
2017-11-03T04:02:01.963Z,24.42
2017-11-03T04:04:28.264Z,23.90
2017-11-03T04:06:54.520Z,24.67
2017-11-03T04:09:20.737Z,25.67
2017-11-03T04:11:47.062Z,25.20
2017-11-03T04:14:13.330Z,23.95
2017-11-03T04:16:39.568Z,23.90
2017-11-03T04:19:05.842Z,23.90
2017-11-03T04:21:32.116Z,25.12
2017-11-03T04:23:58.408Z,23.80
2017-11-03T04:26:24.677Z,25.50
2017-11-03T04:28:50.970Z,24.50
2017-11-03T04:31:17.241Z,23.95
2017-11-03T04:33:44.238Z,22.48
2017-11-03T04:36:10.499Z,24.00
2017-11-03T04:38:36.764Z,24.05
2017-11-03T04:41:03.056Z,24.42
2017-11-03T04:43:29.290Z,23.10
2017-11-03T04:45:55.601Z,25.77
2017-11-03T04:48:21.872Z,24.27
2017-11-03T04:50:48.114Z,22.98
2017-11-03T04:53:14.445Z,24.45
2017-11-03T04:55:40.834Z,23.80
2017-11-03T04:58:08.147Z,23.62
2017-11-03T05:00:34.390Z,22.55
2017-11-03T05:03:01.392Z,22.92
2017-11-03T05:05:27.644Z,23.70
2017-11-03T05:07:53.886Z,22.73
2017-11-03T05:10:20.466Z,23.27
2017-11-03T05:12:47.457Z,24.33
2017-11-03T05:15:13.704Z,24.63
2017-11-03T05:17:40.148Z,26.33
2017-11-03T05:20:06.393Z,23.42
2017-11-03T05:22:33.403Z,24.42
2017-11-03T05:24:59.672Z,22.05
2017-11-03T05:27:26.667Z,24.92
2017-11-03T05:29:53.656Z,24.37
2017-11-03T05:32:20.652Z,26.83
2017-11-03T05:34:47.232Z,24.80
2017-11-03T05:37:14.273Z,24.12
2017-11-03T05:39:41.280Z,21.98
2017-11-03T05:42:08.829Z,24.65
2017-11-03T05:44:35.990Z,22.80
2017-11-03T05:47:02.569Z,24.55
2017-11-03T05:49:30.806Z,23.95
2017-11-03T05:51:57.220Z,25.25
2017-11-03T05:54:23.883Z,24.98
2017-11-03T05:56:51.410Z,25.83
2017-11-03T05:59:17.852Z,25.92
2017-11-03T06:01:44.842Z,21.27
2017-11-03T06:04:11.153Z,26.30
2017-11-03T06:06:37.419Z,26.80
2017-11-03T06:09:04.940Z,25.30
2017-11-03T06:11:32.592Z,21.43
2017-11-03T06:14:00.234Z,23.53
2017-11-03T06:16:26.640Z,24.53
2017-11-03T06:18:52.881Z,24.30
2017-11-03T06:21:20.065Z,26.43
2017-11-03T06:23:46.581Z,24.33
2017-11-03T06:26:13.118Z,19.57
2017-11-03T06:28:39.362Z,19.90
2017-11-03T06:31:05.610Z,21.63
2017-11-03T06:33:31.937Z,25.03
2017-11-03T06:36:05.863Z,23.97
2017-11-03T06:38:32.035Z,21.97
2017-11-03T06:40:58.368Z,22.43
2017-11-03T06:43:24.657Z,21.10
2017-11-03T06:45:50.917Z,17.97
2017-11-03T06:48:17.200Z,21.30
2017-11-03T06:50:43.494Z,20.50
2017-11-03T06:53:10.499Z,20.97
2017-11-03T06:55:36.816Z,20.43
2017-11-03T06:58:03.076Z,19.03
2017-11-03T07:00:29.324Z,22.50
2017-11-03T07:02:55.717Z,20.50
2017-11-03T07:05:21.982Z,20.60
2017-11-03T07:07:49.025Z,21.83
2017-11-03T07:10:16.711Z,20.23
2017-11-03T07:12:43.157Z,20.73
2017-11-03T07:15:09.428Z,23.20
2017-11-03T07:17:37.130Z,24.20
2017-11-03T07:20:03.417Z,22.97
2017-11-03T07:22:29.666Z,24.17
2017-11-03T07:24:56.948Z,27.10
2017-11-03T07:27:23.224Z,27.27
2017-11-03T07:29:49.470Z,26.77
2017-11-03T07:32:17.553Z,29.87
2017-11-03T07:34:43.820Z,26.70
2017-11-03T07:37:10.091Z,28.53
2017-11-03T07:39:36.371Z,28.70
2017-11-03T07:42:02.673Z,26.17
2017-11-03T07:44:28.950Z,27.20
2017-11-03T07:46:56.042Z,25.97
2017-11-03T07:49:22.319Z,27.70
2017-11-03T07:51:48.606Z,28.00
2017-11-03T07:54:14.887Z,27.43
2017-11-03T07:56:41.172Z,28.67
2017-11-03T07:59:07.397Z,25.60
2017-11-03T08:01:33.658Z,28.77
2017-11-03T08:03:59.953Z,28.60
2017-11-03T08:06:26.185Z,25.73
2017-11-03T08:08:52.465Z,27.50
2017-11-03T08:11:18.735Z,25.30
2017-11-03T08:13:46.211Z,27.33
2017-11-03T08:16:12.649Z,27.43
2017-11-03T08:18:38.918Z,28.77
2017-11-03T08:21:06.580Z,28.67
2017-11-03T08:23:32.989Z,26.30
2017-11-03T08:25:59.993Z,27.07
2017-11-03T08:28:26.280Z,27.40
2017-11-03T08:30:53.288Z,26.20
2017-11-03T08:33:19.862Z,27.27
2017-11-03T08:35:46.857Z,25.63
2017-11-03T08:38:13.092Z,26.57
2017-11-03T08:40:39.378Z,27.77
2017-11-03T08:43:06.167Z,27.20
2017-11-03T08:45:32.742Z,27.60
2017-11-03T08:47:59.747Z,26.30
2017-11-03T08:50:26.687Z,29.57
2017-11-03T08:52:52.933Z,26.90
2017-11-03T08:55:19.213Z,25.70
2017-11-03T08:57:45.524Z,27.63
2017-11-03T09:00:11.812Z,27.70
2017-11-03T09:02:38.065Z,27.93
2017-11-03T09:05:05.101Z,27.63
2017-11-03T09:07:32.116Z,26.73
2017-11-03T09:09:58.384Z,27.20
2017-11-03T09:12:25.416Z,28.00
2017-11-03T09:14:52.439Z,26.87
2017-11-03T09:17:18.757Z,25.97
2017-11-03T09:19:45.017Z,25.67
2017-11-03T09:22:12.037Z,26.00
2017-11-03T09:24:38.363Z,29.17
2017-11-03T09:27:07.658Z,24.40
2017-11-03T09:29:34.230Z,25.67
2017-11-03T09:32:01.257Z,23.70
2017-11-03T09:34:27.551Z,22.60
2017-11-03T09:36:53.827Z,23.63
2017-11-03T09:39:20.867Z,23.23
2017-11-03T09:41:47.242Z,24.33
2017-11-03T09:44:13.517Z,26.27
2017-11-03T09:46:39.800Z,24.17
2017-11-03T09:49:06.391Z,26.53
2017-11-03T09:51:33.391Z,25.20
2017-11-03T09:53:59.679Z,24.77
2017-11-03T09:56:26.698Z,25.67
2017-11-03T09:58:52.989Z,23.73
2017-11-03T10:01:19.274Z,26.47
2017-11-03T10:03:45.670Z,23.63
2017-11-03T10:06:11.981Z,25.50
2017-11-03T10:08:38.238Z,24.90
2017-11-03T10:11:04.508Z,25.77
2017-11-03T10:13:30.809Z,25.20
2017-11-03T10:15:57.822Z,24.63
2017-11-03T10:18:24.128Z,24.87
2017-11-03T10:20:50.419Z,23.40
2017-11-03T10:23:16.736Z,23.30
2017-11-03T10:25:43.767Z,23.50
2017-11-03T10:28:10.033Z,22.20
2017-11-03T10:30:37.076Z,21.27
2017-11-03T10:33:03.324Z,20.40
2017-11-03T10:35:29.621Z,20.90
2017-11-03T10:37:58.163Z,21.27
2017-11-03T10:40:24.579Z,19.17
2017-11-03T10:42:52.668Z,19.30
2017-11-03T10:45:20.024Z,20.27
2017-11-03T10:47:47.733Z,21.67
2017-11-03T10:50:14.956Z,20.63
2017-11-03T10:52:42.838Z,19.77
2017-11-03T10:55:10.394Z,19.37
2017-11-03T10:57:37.722Z,20.73
2017-11-03T11:00:04.028Z,19.30
2017-11-03T11:02:30.343Z,19.23
2017-11-03T11:04:56.668Z,19.97
2017-11-03T11:07:22.926Z,18.97
2017-11-03T11:09:49.219Z,20.40
2017-11-03T11:12:15.511Z,18.93
2017-11-03T11:14:42.545Z,18.27
2017-11-03T11:17:11.673Z,19.20
2017-11-03T11:19:38.352Z,18.70
2017-11-03T11:22:06.072Z,19.10
2017-11-03T11:24:33.278Z,18.83
2017-11-03T11:27:00.657Z,17.30
2017-11-03T11:29:27.118Z,17.53
2017-11-03T11:31:53.576Z,18.57
2017-11-03T11:34:19.870Z,16.67
2017-11-03T11:36:47.351Z,17.50
2017-11-03T11:39:13.694Z,19.40
2017-11-03T11:41:40.099Z,17.30
2017-11-03T11:44:06.378Z,15.70
2017-11-03T11:46:33.442Z,14.80
2017-11-03T11:49:01.019Z,15.40
2017-11-03T11:51:28.232Z,14.90
2017-11-03T11:53:55.253Z,16.13
2017-11-03T11:56:21.520Z,16.23
2017-11-03T11:58:50.507Z,17.60
2017-11-03T12:01:16.972Z,17.00
2017-11-03T12:03:43.313Z,16.10
2017-11-03T12:06:09.612Z,16.33
2017-11-03T12:08:35.897Z,15.63
2017-11-03T12:11:02.229Z,15.37
2017-11-03T12:13:29.583Z,15.70
2017-11-03T12:15:56.086Z,16.27
2017-11-03T12:18:22.388Z,16.97
2017-11-03T12:20:48.713Z,15.00
2017-11-03T12:23:15.841Z,14.40
2017-11-03T12:25:42.853Z,14.67
2017-11-03T12:28:09.807Z,14.87
2017-11-03T12:30:36.111Z,15.07
2017-11-03T12:33:04.099Z,15.80
2017-11-03T12:35:30.593Z,14.67
2017-11-03T12:37:56.995Z,14.40
2017-11-03T12:40:23.478Z,13.37
2017-11-03T12:42:49.783Z,14.63
2017-11-03T12:45:16.061Z,14.03
2017-11-03T12:47:43.649Z,14.83
2017-11-03T12:50:11.399Z,15.00
2017-11-03T12:52:38.083Z,12.30
2017-11-03T12:55:04.379Z,13.40
2017-11-03T12:57:30.682Z,12.87
2017-11-03T12:59:57.692Z,13.40
2017-11-03T13:02:25.394Z,12.90
2017-11-03T13:04:52.936Z,12.67
2017-11-03T13:07:20.698Z,13.60
2017-11-03T13:09:47.276Z,13.13
2017-11-03T13:12:14.731Z,14.87
2017-11-03T13:14:42.358Z,14.03
2017-11-03T13:17:08.822Z,15.63
2017-11-03T13:19:35.119Z,13.70
2017-11-03T13:22:02.712Z,13.33
2017-11-03T13:24:30.766Z,13.00
2017-11-03T13:26:58.413Z,13.07
2017-11-03T13:29:25.040Z,11.37
2017-11-03T13:31:51.384Z,11.23
2017-11-03T13:34:17.669Z,11.53
2017-11-03T13:36:45.192Z,12.00
2017-11-03T13:39:12.430Z,11.77
2017-11-03T13:41:38.784Z,11.03
2017-11-03T13:44:06.840Z,11.10
2017-11-03T13:46:33.608Z,11.30
2017-11-03T13:49:01.409Z,9.43
2017-11-03T13:51:28.628Z,12.40
2017-11-03T13:53:54.911Z,10.63
2017-11-03T13:56:21.221Z,11.40
2017-11-03T13:58:49.369Z,11.40
2017-11-03T14:01:15.802Z,12.07
2017-11-03T14:03:42.172Z,11.30
2017-11-03T14:06:08.474Z,10.80
2017-11-03T14:08:35.999Z,12.70
2017-11-03T14:11:02.267Z,9.40
2017-11-03T14:13:29.281Z,11.23
2017-11-03T14:15:55.534Z,10.50
2017-11-03T14:18:22.514Z,10.30
2017-11-03T14:20:48.782Z,12.77
2017-11-03T14:23:15.037Z,11.83
2017-11-03T14:25:42.048Z,11.60
2017-11-03T14:28:08.305Z,11.60
2017-11-03T14:30:35.272Z,11.00
2017-11-03T14:33:01.561Z,10.77
2017-11-03T14:35:28.683Z,16.90
2017-11-03T14:37:55.129Z,10.23
2017-11-03T14:40:22.333Z,11.03
2017-11-03T14:42:48.867Z,9.63
2017-11-03T14:45:15.118Z,10.83
2017-11-03T14:47:42.008Z,10.50
2017-11-03T14:50:09.057Z,10.20
2017-11-03T14:52:36.060Z,11.00
2017-11-03T14:55:02.315Z,10.50
2017-11-03T14:57:29.482Z,9.67
2017-11-03T14:59:56.460Z,10.00
2017-11-03T15:02:22.761Z,10.30
2017-11-03T15:04:49.017Z,11.63
2017-11-03T15:07:15.257Z,10.90
2017-11-03T15:09:41.549Z,10.37
2017-11-03T15:12:07.839Z,10.90
2017-11-03T15:14:34.258Z,10.93
2017-11-03T15:17:00.528Z,11.70
2017-11-03T15:19:27.527Z,11.40
2017-11-03T15:21:53.805Z,11.77
2017-11-03T15:24:20.126Z,11.43
2017-11-03T15:26:47.242Z,11.10
2017-11-03T15:29:13.553Z,12.03
2017-11-03T15:31:39.846Z,11.10
2017-11-03T15:34:07.446Z,11.80
2017-11-03T15:36:33.781Z,12.37
2017-11-03T15:39:00.333Z,11.73
2017-11-03T15:41:26.703Z,11.73
2017-11-03T15:43:53.001Z,11.07
2017-11-03T15:46:19.307Z,12.20
2017-11-03T15:48:45.551Z,11.57
2017-11-03T15:51:11.857Z,10.90
2017-11-03T15:53:38.165Z,12.33
2017-11-03T15:56:04.441Z,12.03
2017-11-03T15:58:31.484Z,12.43
2017-11-03T16:00:58.477Z,12.60
2017-11-03T16:03:25.039Z,13.20
2017-11-03T16:05:52.109Z,11.60
2017-11-03T16:08:19.491Z,11.80
2017-11-03T16:10:45.762Z,11.80
2017-11-03T16:13:12.099Z,10.77
2017-11-03T16:15:38.515Z,11.00
2017-11-03T16:18:04.750Z,11.90
2017-11-03T16:20:31.053Z,11.00
2017-11-03T16:22:57.323Z,11.20
2017-11-03T16:25:24.325Z,12.13
2017-11-03T16:27:50.618Z,13.20
2017-11-03T16:30:16.905Z,12.30
2017-11-03T16:32:43.274Z,12.00
2017-11-03T16:35:10.303Z,13.50
2017-11-03T16:37:37.676Z,13.35
2017-11-03T16:40:04.020Z,11.85
2017-11-03T16:42:30.348Z,12.45
2017-11-03T16:44:56.672Z,10.18
2017-11-03T16:47:22.921Z,11.23
2017-11-03T16:49:49.249Z,12.23
2017-11-03T16:52:16.256Z,10.18
2017-11-03T16:54:43.317Z,12.60
2017-11-03T16:57:09.588Z,13.10
2017-11-03T16:59:35.881Z,12.10
2017-11-03T17:02:02.221Z,13.48
2017-11-03T17:04:28.514Z,13.73
2017-11-03T17:06:55.614Z,12.57
2017-11-03T17:09:21.896Z,12.93
2017-11-03T17:11:48.192Z,12.95
2017-11-03T17:14:14.509Z,14.32
2017-11-03T17:16:41.796Z,14.02
2017-11-03T17:19:09.166Z,13.85
2017-11-03T17:21:35.425Z,14.25
2017-11-03T17:24:02.509Z,15.95
2017-11-03T17:26:29.707Z,15.10
2017-11-03T17:28:56.165Z,18.60
2017-11-03T17:31:22.476Z,16.37
2017-11-03T17:33:50.085Z,13.05
2017-11-03T17:36:16.546Z,13.82
2017-11-03T17:38:44.199Z,15.05
2017-11-03T17:41:10.735Z,13.10
2017-11-03T17:43:38.162Z,11.93
2017-11-03T17:46:04.775Z,13.70
2017-11-03T17:48:31.191Z,12.75
2017-11-03T17:50:57.528Z,14.00
2017-11-03T17:53:24.863Z,15.85
2017-11-03T17:55:52.160Z,14.52
2017-11-03T17:58:19.575Z,14.68
2017-11-03T18:00:48.040Z,15.60
2017-11-03T18:03:15.232Z,15.70
2017-11-03T18:05:41.704Z,27.33
2017-11-03T18:08:08.980Z,19.30
2017-11-03T18:10:35.372Z,17.25
2017-11-03T18:13:03.471Z,16.70
2017-11-03T18:15:30.728Z,16.35
2017-11-03T18:17:57.181Z,14.35
2017-11-03T18:20:24.636Z,14.05
2017-11-03T18:22:51.117Z,15.32
2017-11-03T18:25:18.071Z,15.13
2017-11-03T18:27:44.621Z,16.27
2017-11-03T18:30:10.927Z,16.42
2017-11-03T18:32:37.226Z,15.95
2017-11-03T18:35:03.533Z,17.40
2017-11-03T18:37:29.842Z,18.73
2017-11-03T18:39:56.166Z,15.30
2017-11-03T18:42:22.510Z,18.50
2017-11-03T18:44:55.951Z,18.75
2017-11-03T18:47:22.979Z,19.25
2017-11-03T18:49:49.308Z,22.27
2017-11-03T18:52:15.659Z,31.10
2017-11-03T18:54:42.741Z,30.67
2017-11-03T18:57:09.128Z,30.70
2017-11-03T18:59:36.190Z,29.92
2017-11-03T19:02:02.526Z,31.10
2017-11-03T19:04:28.841Z,35.75
2017-11-03T19:06:55.921Z,34.22
2017-11-03T19:09:22.260Z,34.03
2017-11-03T19:11:48.695Z,29.98
2017-11-03T19:14:15.003Z,24.15
2017-11-03T19:16:41.348Z,22.60
2017-11-03T19:19:07.695Z,21.65
2017-11-03T19:21:34.045Z,19.90
2017-11-03T19:24:00.370Z,19.30
2017-11-03T19:26:26.694Z,19.02
2017-11-03T19:28:53.068Z,18.50
2017-11-03T19:31:19.442Z,17.95
2017-11-03T19:33:45.764Z,17.33
2017-11-03T19:36:12.775Z,18.90
2017-11-03T19:38:39.699Z,22.58
2017-11-03T19:41:06.049Z,21.73
2017-11-03T19:43:32.434Z,21.10
2017-11-03T19:45:58.825Z,23.67
2017-11-03T19:48:25.173Z,21.42
2017-11-03T19:50:51.543Z,19.90
2017-11-03T19:53:18.665Z,19.75
2017-11-03T19:55:46.151Z,20.37
2017-11-03T19:58:12.675Z,19.87
2017-11-03T20:00:39.728Z,19.92
2017-11-03T20:03:06.736Z,26.20
2017-11-03T20:05:33.109Z,23.60
2017-11-03T20:07:59.451Z,29.33
2017-11-03T20:10:25.768Z,29.83
2017-11-03T20:12:52.052Z,33.05
2017-11-03T20:15:18.396Z,45.03
2017-11-03T20:17:44.707Z,42.70
2017-11-03T20:20:11.009Z,39.30
2017-11-03T20:22:37.376Z,34.75
2017-11-03T20:25:03.709Z,28.08
2017-11-03T20:27:31.206Z,27.45
2017-11-03T20:29:57.690Z,25.50
2017-11-03T20:32:24.059Z,23.25
2017-11-03T20:34:50.403Z,23.05
2017-11-03T20:37:16.745Z,20.73
2017-11-03T20:39:43.125Z,20.40
2017-11-03T20:42:10.448Z,19.77
2017-11-03T20:44:37.605Z,21.77
2017-11-03T20:47:03.891Z,26.17
2017-11-03T20:49:30.902Z,25.80
2017-11-03T20:51:57.473Z,26.40
2017-11-03T20:54:23.759Z,24.20
2017-11-03T20:56:51.494Z,24.52
2017-11-03T20:59:17.835Z,22.65
2017-11-03T21:01:44.205Z,24.42
2017-11-03T21:04:11.304Z,20.10
2017-11-03T21:06:37.692Z,19.65
2017-11-03T21:09:04.734Z,18.20
2017-11-03T21:11:31.032Z,21.60
2017-11-03T21:13:57.472Z,19.30
2017-11-03T21:16:23.856Z,19.60
2017-11-03T21:18:50.219Z,20.85
2017-11-03T21:21:16.596Z,20.98
2017-11-03T21:23:43.851Z,22.90
2017-11-03T21:26:10.154Z,22.13
2017-11-03T21:28:37.212Z,20.77
2017-11-03T21:31:04.297Z,21.95
2017-11-03T21:33:31.051Z,24.02
2017-11-03T21:35:57.568Z,23.02
2017-11-03T21:38:23.875Z,22.08
2017-11-03T21:40:51.614Z,21.70
2017-11-03T21:43:18.023Z,22.40
2017-11-03T21:45:45.074Z,20.77
2017-11-03T21:48:12.167Z,18.55
2017-11-03T21:50:38.465Z,18.40
2017-11-03T21:53:04.767Z,20.08
2017-11-03T21:55:31.815Z,20.80
2017-11-03T21:57:58.611Z,20.98
2017-11-03T22:00:24.898Z,24.90
2017-11-03T22:02:51.999Z,25.40
2017-11-03T22:05:18.306Z,24.27
2017-11-03T22:07:44.612Z,25.67
2017-11-03T22:10:10.869Z,23.15
2017-11-03T22:12:37.195Z,21.55
2017-11-03T22:15:03.523Z,22.62
2017-11-03T22:17:29.792Z,19.77
2017-11-03T22:19:56.107Z,20.00
2017-11-03T22:22:22.351Z,20.00
2017-11-03T22:24:48.606Z,21.25
2017-11-03T22:27:14.895Z,18.75
2017-11-03T22:29:41.154Z,17.50
2017-11-03T22:32:07.388Z,18.30
2017-11-03T22:34:33.695Z,18.30
2017-11-03T22:37:00.714Z,18.30
2017-11-03T22:39:27.014Z,18.40
2017-11-03T22:41:53.333Z,17.62
2017-11-03T22:44:19.597Z,19.15
2017-11-03T22:46:45.852Z,17.70
2017-11-03T22:49:12.119Z,16.70
2017-11-03T22:51:38.398Z,17.45
2017-11-03T22:54:04.660Z,16.55
2017-11-03T22:56:30.890Z,15.88
2017-11-03T22:58:57.166Z,16.67
2017-11-03T23:01:23.444Z,18.70
2017-11-03T23:03:49.800Z,15.70
2017-11-03T23:06:16.036Z,16.15
2017-11-03T23:08:42.311Z,16.33
2017-11-03T23:11:09.298Z,16.48
2017-11-03T23:13:35.528Z,17.83
2017-11-03T23:16:01.791Z,17.35
2017-11-03T23:18:28.047Z,16.77
2017-11-03T23:20:55.165Z,15.52
2017-11-03T23:23:21.534Z,16.73
2017-11-03T23:25:47.790Z,15.70
2017-11-03T23:28:14.065Z,16.90
2017-11-03T23:30:41.092Z,16.23
2017-11-03T23:33:07.316Z,16.95
2017-11-03T23:35:33.612Z,17.83
2017-11-03T23:37:59.848Z,17.48
2017-11-03T23:40:26.406Z,16.80
2017-11-03T23:42:52.779Z,18.25
2017-11-03T23:45:19.020Z,17.95
2017-11-03T23:47:45.300Z,18.50
2017-11-03T23:50:11.453Z,17.30
2017-11-03T23:52:37.725Z,15.77
2017-11-03T23:55:04.725Z,16.35
2017-11-03T23:57:30.988Z,16.70
2017-11-03T23:59:57.231Z,17.40
